Time;durP1;ratioP1;P1;durP2;ratioP2;P2;SDS_P1;SDS_P2;PMS_P1;PMS_P2;Temp;Humidity;BMP_temperature;BMP_pressure;BME280_temperature;BME280_humidity;BME280_pressure;Samples;Min_cycle;Max_cycle;Signal;HPM_P1;HPM_P2
2022/08/13 00:00:42;;;;;;;3.50;2.77;;;;;18.30;101035.00;;;;10420560;28;20194;-76
2022/08/13 00:05:46;;;;;;;4.93;2.90;;;;;18.20;101037.00;;;;10437755;28;20218;-77
2022/08/13 00:10:49;;;;;;;5.50;2.93;;;;;18.20;101039.00;;;;10417850;28;20198;-76
2022/08/13 00:15:50;;;;;;;6.73;2.90;;;;;18.10;101036.00;;;;10420275;28;20199;-76
2022/08/13 00:20:58;;;;;;;8.57;3.03;;;;;17.90;101035.00;;;;10404119;28;20305;-76
2022/08/13 00:26:03;;;;;;;5.73;2.83;;;;;17.90;101039.00;;;;10430155;28;20717;-76
2022/08/13 00:31:05;;;;;;;6.43;3.73;;;;;17.80;101036.00;;;;10465011;28;20182;-77
2022/08/13 00:36:12;;;;;;;6.40;3.57;;;;;17.70;101040.00;;;;10470229;28;20189;-77
2022/08/13 00:41:37;;;;;;;5.03;3.07;;;;;17.60;101043.00;;;;10467597;28;20206;-77
2022/08/13 00:52:19;;;;;;;7.67;3.13;;;;;17.50;101045.00;;;;10469065;28;20202;-77
2022/08/13 00:57:21;;;;;;;6.70;3.10;;;;;17.40;101043.00;;;;10459342;28;20193;-77
2022/08/13 01:02:30;;;;;;;6.13;3.07;;;;;17.30;101051.00;;;;10441312;28;20216;-77
2022/08/13 01:07:35;;;;;;;6.97;3.73;;;;;17.20;101049.00;;;;10483443;28;20222;-77
2022/08/13 01:12:54;;;;;;;3.37;2.93;;;;;17.10;101044.00;;;;10453532;28;20252;-77
2022/08/13 01:17:57;;;;;;;10.03;3.47;;;;;17.10;101052.00;;;;10450515;28;20201;-77
2022/08/13 01:23:01;;;;;;;5.87;3.37;;;;;17.00;101050.00;;;;10464170;28;20197;-77
2022/08/13 01:28:04;;;;;;;5.07;3.10;;;;;17.00;101059.00;;;;10460019;28;20174;-77
2022/08/13 01:33:08;;;;;;;3.37;3.07;;;;;16.90;101045.00;;;;10461554;28;20676;-77
2022/08/13 01:38:14;;;;;;;7.27;4.07;;;;;16.80;101050.00;;;;10483159;28;20197;-77
2022/08/13 01:43:28;;;;;;;3.80;2.97;;;;;16.70;101060.00;;;;10426678;28;20197;-77
2022/08/13 01:54:01;;;;;;;5.10;3.00;;;;;16.60;101051.00;;;;10424935;28;20198;-77
2022/08/13 01:59:23;;;;;;;6.60;3.23;;;;;16.50;101052.00;;;;10427728;28;20194;-77
2022/08/13 02:04:46;;;;;;;5.60;3.20;;;;;16.50;101059.00;;;;10427568;28;20296;-77
2022/08/13 02:10:02;;;;;;;7.83;2.87;;;;;16.40;101051.00;;;;10465472;28;20732;-77
2022/08/13 02:15:06;;;;;;;6.63;3.67;;;;;16.30;101053.00;;;;10434520;28;20206;-77
2022/08/13 02:20:17;;;;;;;3.77;3.27;;;;;16.30;101067.00;;;;10407509;28;20202;-77
2022/08/13 02:25:22;;;;;;;5.37;3.90;;;;;16.20;101054.00;;;;10407970;28;20229;-77
2022/08/13 02:30:27;;;;;;;6.43;4.20;;;;;16.10;101059.00;;;;10423755;28;20217;-77
2022/08/13 02:35:29;;;;;;;5.33;3.70;;;;;16.00;101058.00;;;;10442645;28;20572;-77
2022/08/13 02:46:17;;;;;;;6.93;4.13;;;;;15.80;101055.00;;;;10439442;28;20193;-77
2022/08/13 02:51:23;;;;;;;6.63;4.10;;;;;15.80;101047.00;;;;10422663;28;20205;-77
2022/08/13 02:56:45;;;;;;;7.33;4.10;;;;;15.80;101049.00;;;;10458749;28;20548;-77
2022/08/13 03:01:51;;;;;;;6.20;4.13;;;;;15.70;101042.00;;;;10471774;28;20190;-77
2022/08/13 03:06:57;;;;;;;9.60;3.80;;;;;15.60;101052.00;;;;10439006;28;20190;-77
2022/08/13 03:12:03;;;;;;;5.53;4.63;;;;;15.50;101053.00;;;;10405597;28;20297;-77
2022/08/13 03:17:11;;;;;;;8.33;4.73;;;;;15.40;101054.00;;;;10421811;28;20316;-77
2022/08/13 03:22:25;;;;;;;6.63;4.30;;;;;15.40;101052.00;;;;10422438;28;20285;-77
2022/08/13 03:27:28;;;;;;;7.27;4.33;;;;;15.30;101054.00;;;;10420988;28;20231;-77
2022/08/13 03:32:40;;;;;;;6.10;4.50;;;;;15.20;101053.00;;;;10436762;28;20214;-77
2022/08/13 03:37:54;;;;;;;5.50;4.03;;;;;15.20;101057.00;;;;10462799;28;20181;-77
2022/08/13 03:43:07;;;;;;;7.70;4.63;;;;;15.20;101056.00;;;;10433463;28;20186;-77
2022/08/13 03:48:17;;;;;;;5.73;4.20;;;;;15.20;101058.00;;;;10422651;28;20190;-77
2022/08/13 03:53:20;;;;;;;18.43;4.53;;;;;15.10;101058.00;;;;10420679;28;20210;-77
2022/08/13 03:58:44;;;;;;;6.33;4.00;;;;;15.10;101057.00;;;;10443455;28;20191;-77
2022/08/13 04:03:46;;;;;;;6.03;3.83;;;;;15.00;101073.00;;;;10445344;28;20304;-77
2022/08/13 04:08:50;;;;;;;6.47;3.80;;;;;15.00;101060.00;;;;10458716;28;20228;-76
2022/08/13 04:13:52;;;;;;;7.07;4.03;;;;;14.90;101055.00;;;;10491800;28;20212;-77
2022/08/13 04:19:08;;;;;;;7.80;4.20;;;;;14.90;101047.00;;;;10433568;28;20725;-79
2022/08/13 04:24:20;;;;;;;7.43;4.63;;;;;14.80;101059.00;;;;10419187;28;20736;-77
2022/08/13 04:29:28;;;;;;;7.87;4.23;;;;;14.80;101058.00;;;;10450236;28;20669;-77
2022/08/13 04:34:51;;;;;;;5.50;4.00;;;;;14.80;101062.00;;;;10425833;28;20201;-77
2022/08/13 04:40:00;;;;;;;6.23;4.00;;;;;14.80;101062.00;;;;10414675;28;20201;-78
2022/08/13 04:45:13;;;;;;;4.63;4.07;;;;;14.90;101074.00;;;;10507126;28;20174;-78
2022/08/13 04:50:15;;;;;;;11.37;4.83;;;;;14.90;101073.00;;;;10474540;28;20189;-77
2022/08/13 04:55:20;;;;;;;4.17;3.67;;;;;15.00;101081.00;;;;10458652;28;20304;-77
2022/08/13 05:00:29;;;;;;;8.87;4.23;;;;;15.20;101071.00;;;;10474525;28;20612;-77
2022/08/13 05:05:31;;;;;;;6.77;3.97;;;;;15.40;101071.00;;;;10447443;28;20245;-77
2022/08/13 05:10:44;;;;;;;5.30;4.03;;;;;15.60;101081.00;;;;10433661;28;20206;-77
2022/08/13 05:15:47;;;;;;;4.90;4.40;;;;;15.80;101079.00;;;;10434690;28;20292;-77
2022/08/13 05:20:52;;;;;;;6.27;4.83;;;;;16.00;101082.00;;;;10450030;28;20259;-77
2022/08/13 05:25:55;;;;;;;7.83;3.97;;;;;16.30;101077.00;;;;10500324;28;20182;-76
2022/08/13 05:31:17;;;;;;;5.33;4.00;;;;;16.90;101079.00;;;;10429669;28;20194;-77
2022/08/13 05:36:28;;;;;;;29.60;17.10;;;;;17.30;101093.00;;;;10481362;28;20194;-76
2022/08/13 05:41:50;;;;;;;8.67;4.60;;;;;17.60;101089.00;;;;10459319;28;20204;-76
2022/08/13 05:47:10;;;;;;;10.27;3.97;;;;;18.10;101089.00;;;;10457863;28;20264;-76
2022/08/13 05:52:17;;;;;;;6.93;3.20;;;;;18.50;101100.00;;;;10423646;28;20245;-77
2022/08/13 05:57:39;;;;;;;7.67;5.20;;;;;19.00;101099.00;;;;10453149;28;20276;-78
2022/08/13 06:08:05;;;;;;;5.90;3.00;;;;;20.30;101096.00;;;;10476623;28;20200;-78
2022/08/13 06:13:28;;;;;;;8.63;3.33;;;;;21.10;101099.00;;;;10455351;28;20198;-78
2022/08/13 06:18:50;;;;;;;4.60;2.60;;;;;21.70;101094.00;;;;10452966;28;20250;-78
2022/08/13 06:24:05;;;;;;;6.65;3.63;;;;;22.20;101104.00;;;;10443092;28;20187;-77
2022/08/13 06:29:11;;;;;;;7.05;4.03;;;;;22.80;101107.00;;;;10442486;28;20186;-77
2022/08/13 06:34:18;;;;;;;6.45;2.80;;;;;23.20;101104.00;;;;10452288;28;20737;-78
2022/08/13 06:39:39;;;;;;;6.97;2.45;;;;;23.70;101101.00;;;;10466913;28;20215;-78
2022/08/13 06:44:44;;;;;;;6.90;2.55;;;;;24.20;101102.00;;;;10452627;28;20186;-77
2022/08/13 06:49:48;;;;;;;4.90;2.72;;;;;24.70;101106.00;;;;10459514;28;20657;-77
2022/08/13 06:55:04;;;;;;;4.68;2.25;;;;;25.20;101101.00;;;;10417817;28;20202;-77
2022/08/13 07:00:26;;;;;;;3.38;1.90;;;;;25.60;101108.00;;;;10442927;28;20279;-78
2022/08/13 07:05:37;;;;;;;6.30;2.85;;;;;25.90;101102.00;;;;10429645;28;20235;-78
2022/08/13 07:10:43;;;;;;;4.82;2.30;;;;;26.20;101104.00;;;;10457523;28;20288;-79
2022/08/13 07:15:46;;;;;;;9.32;2.67;;;;;26.70;101106.00;;;;10458302;28;20707;-79
2022/08/13 07:20:50;;;;;;;4.50;1.70;;;;;27.10;101108.00;;;;10451023;28;20217;-79
2022/08/13 07:25:57;;;;;;;3.15;2.03;;;;;27.60;101113.00;;;;10458138;28;20189;-79
2022/08/13 07:31:06;;;;;;;3.03;1.52;;;;;28.10;101113.00;;;;10469566;28;20189;-78
2022/08/13 07:36:12;;;;;;;4.43;2.40;;;;;28.50;101109.00;;;;10443147;28;20284;-79
2022/08/13 07:41:14;;;;;;;2.25;1.98;;;;;28.70;101109.00;;;;10433780;28;20288;-79
2022/08/13 07:46:18;;;;;;;4.38;1.60;;;;;29.10;101115.00;;;;10417786;28;20240;-79
2022/08/13 07:51:29;;;;;;;5.78;1.65;;;;;29.60;101115.00;;;;10430548;28;20186;-79
2022/08/13 07:56:39;;;;;;;3.92;1.50;;;;;30.10;101114.00;;;;10432739;28;20198;-78
2022/08/13 08:01:53;;;;;;;3.35;1.45;;;;;30.60;101112.00;;;;10444072;28;20965;-78
2022/08/13 08:07:17;;;;;;;4.28;1.30;;;;;31.10;101103.00;;;;10443988;28;20190;-79
2022/08/13 08:12:35;;;;;;;7.60;1.45;;;;;31.50;101106.00;;;;10410897;28;20198;-79
2022/08/13 08:17:48;;;;;;;3.15;1.35;;;;;32.00;101112.00;;;;10433245;28;20201;-79
2022/08/13 08:23:15;;;;;;;1.73;1.40;;;;;32.40;101108.00;;;;10473284;28;20256;-79
2022/08/13 08:28:37;;;;;;;6.07;1.33;;;;;32.80;101115.00;;;;10451151;28;20190;-79
2022/08/13 08:33:44;;;;;;;3.03;1.63;;;;;33.30;101123.00;;;;10450075;28;20210;-79
2022/08/13 08:44:23;;;;;;;2.83;1.27;;;;;34.00;101112.00;;;;10406700;28;20226;-78
2022/08/13 08:49:28;;;;;;;1.75;1.27;;;;;34.40;101116.00;;;;10460476;28;20591;-78
2022/08/13 08:54:47;;;;;;;1.35;1.25;;;;;34.90;101113.00;;;;10469107;28;20614;-77
2022/08/13 08:59:51;;;;;;;3.50;1.20;;;;;35.30;101119.00;;;;10475634;28;20232;-77
2022/08/13 09:04:56;;;;;;;1.20;1.05;;;;;35.70;101119.00;;;;10438490;28;20213;-78
2022/08/13 09:10:09;;;;;;;3.58;1.05;;;;;35.70;101118.00;;;;10431760;28;20213;-77
2022/08/13 09:15:17;;;;;;;2.42;1.15;;;;;36.00;101110.00;;;;10432064;28;20245;-77
2022/08/13 09:20:25;;;;;;;3.17;0.98;;;;;36.30;101105.00;;;;10447893;28;20213;-78
2022/08/13 09:25:27;;;;;;;2.17;1.20;;;;;36.40;101093.00;;;;10451578;28;20185;-75
2022/08/13 09:30:31;;;;;;;1.05;0.80;;;;;36.60;101093.00;;;;10440873;28;20186;-75
2022/08/13 09:35:34;;;;;;;1.13;0.88;;;;;36.90;101104.00;;;;10452465;28;20233;-75
2022/08/13 09:40:52;;;;;;;2.83;1.10;;;;;37.20;101102.00;;;;10469162;28;20644;-76
2022/08/13 09:46:15;;;;;;;1.33;0.98;;;;;37.30;101101.00;;;;10442922;28;20212;-76
2022/08/13 09:51:24;;;;;;;1.02;0.90;;;;;37.50;101096.00;;;;10462101;28;20197;-76
2022/08/13 09:56:47;;;;;;;2.65;1.05;;;;;37.70;101095.00;;;;10433481;28;20185;-76
2022/08/13 10:01:56;;;;;;;1.80;1.00;;;;;37.70;101104.00;;;;10446619;28;20213;-76
2022/08/13 10:07:00;;;;;;;5.35;1.23;;;;;37.90;101092.00;;;;10452598;28;20603;-76
2022/08/13 10:12:07;;;;;;;1.15;0.80;;;;;37.90;101085.00;;;;10446017;28;20220;-76
2022/08/13 10:17:21;;;;;;;1.45;0.80;;;;;37.60;101092.00;;;;10450225;28;20293;-75
2022/08/13 10:22:23;;;;;;;2.15;1.10;;;;;37.60;101081.00;;;;10437512;28;20198;-75
2022/08/13 10:27:35;;;;;;;2.42;0.80;;;;;38.10;101070.00;;;;10459491;28;20202;-76
2022/08/13 10:32:54;;;;;;;0.95;0.75;;;;;38.50;101067.00;;;;10424810;28;20201;-75
2022/08/13 10:38:07;;;;;;;2.85;1.10;;;;;39.00;101065.00;;;;10446078;28;20181;-76
2022/08/13 10:43:10;;;;;;;2.33;1.10;;;;;38.50;101058.00;;;;10431441;28;20206;-75
2022/08/13 10:48:26;;;;;;;3.30;0.90;;;;;38.70;101057.00;;;;10439291;28;20281;-75
2022/08/13 10:58:59;;;;;;;3.25;0.70;;;;;38.70;101049.00;;;;10463819;28;20236;-76
2022/08/13 11:04:03;;;;;;;1.10;0.73;;;;;38.90;101039.00;;;;10421860;28;20264;-77
2022/08/13 11:09:07;;;;;;;1.38;0.73;;;;;38.60;101055.00;;;;10436008;28;20648;-75
2022/08/13 11:14:28;;;;;;;2.00;0.70;;;;;38.50;101039.00;;;;10417377;28;20553;-75
2022/08/13 11:19:45;;;;;;;2.38;0.82;;;;;38.70;101040.00;;;;10443536;28;20205;-76
2022/08/13 11:24:50;;;;;;;0.73;0.70;;;;;38.70;101048.00;;;;10433835;28;20210;-76
2022/08/13 11:29:53;;;;;;;1.27;0.95;;;;;38.70;101042.00;;;;10440261;28;20194;-76
2022/08/13 11:34:57;;;;;;;2.30;1.15;;;;;38.90;101032.00;;;;10448720;28;20243;-76
2022/08/13 11:39:59;;;;;;;3.80;0.85;;;;;38.80;101033.00;;;;10449392;28;20255;-76
2022/08/13 11:45:21;;;;;;;2.50;0.60;;;;;38.80;101031.00;;;;10423993;28;20205;-77
2022/08/13 11:50:23;;;;;;;0.88;0.73;;;;;38.50;101035.00;;;;10440090;28;20194;-75
2022/08/13 11:55:32;;;;;;;4.18;0.80;;;;;38.30;101018.00;;;;10452008;28;20591;-75
2022/08/13 12:00:54;;;;;;;3.30;0.75;;;;;38.70;101021.00;;;;10449144;28;20281;-76
2022/08/13 12:05:56;;;;;;;3.97;1.00;;;;;38.90;101011.00;;;;10441575;28;20699;-75
2022/08/13 12:59:21;;;;;;;2.28;0.84;;;;;38.40;100982.00;;;;12646695;23;1554344;-77
2022/08/13 13:04:23;;;;;;;2.63;1.77;;;;;38.50;100974.00;;;;12700520;23;20186;-77
2022/08/13 13:09:25;;;;;;;2.42;0.90;;;;;38.60;100973.00;;;;12776805;23;20167;-78
2022/08/13 13:14:47;;;;;;;0.75;0.70;;;;;39.00;100973.00;;;;12734799;23;20176;-77
2022/08/13 13:20:03;;;;;;;2.05;0.90;;;;;39.40;100960.00;;;;12708522;23;20262;-77
2022/08/13 13:25:09;;;;;;;2.75;0.80;;;;;39.50;100954.00;;;;12773137;23;20163;-77
2022/08/13 13:30:13;;;;;;;1.13;0.93;;;;;40.20;100942.00;;;;12699497;23;20174;-77
2022/08/13 13:35:19;;;;;;;4.18;0.80;;;;;40.90;100943.00;;;;12719408;23;20251;-77
2022/08/13 13:40:44;;;;;;;6.90;1.40;;;;;41.80;100929.00;;;;12686388;23;20259;-77
2022/08/13 13:45:47;;;;;;;3.95;0.95;;;;;42.00;100935.00;;;;12674804;23;20198;-77
2022/08/13 13:50:50;;;;;;;3.83;1.10;;;;;42.20;100929.00;;;;12680959;23;20176;-77
2022/08/13 13:55:53;;;;;;;3.88;3.17;;;;;42.30;100919.00;;;;12732704;23;20176;-78
2022/08/13 14:00:57;;;;;;;2.83;1.10;;;;;42.70;100925.00;;;;12739970;23;20689;-79
2022/08/13 14:06:04;;;;;;;3.17;1.10;;;;;42.90;100922.00;;;;12768956;23;20160;-78
2022/08/13 14:11:06;;;;;;;2.75;1.20;;;;;43.20;100917.00;;;;12681436;23;20187;-78
2022/08/13 14:16:15;;;;;;;2.78;1.00;;;;;41.60;100902.00;;;;12683078;23;20226;-78
2022/08/13 14:21:19;;;;;;;1.05;0.82;;;;;43.90;100885.00;;;;12728943;23;20183;-78
2022/08/13 14:26:22;;;;;;;2.45;1.00;;;;;44.50;100881.00;;;;12728117;23;20168;-79
2022/08/13 14:31:28;;;;;;;1.15;0.95;;;;;44.60;100871.00;;;;12737667;23;20143;-78
2022/08/13 14:36:37;;;;;;;2.92;1.80;;;;;45.20;100866.00;;;;12713032;23;20176;-78
2022/08/13 14:41:59;;;;;;;3.03;1.30;;;;;45.40;100860.00;;;;12736673;23;20159;-79
2022/08/13 14:47:05;;;;;;;5.22;1.15;;;;;45.70;100854.00;;;;12669052;23;20192;-79
2022/08/13 14:52:14;;;;;;;4.20;0.98;;;;;45.90;100854.00;;;;12760234;23;20172;-80
2022/08/13 14:57:21;;;;;;;2.05;1.00;;;;;45.60;100848.00;;;;12736509;23;20172;-78
2022/08/13 15:02:43;;;;;;;4.35;2.33;;;;;45.70;100833.00;;;;12719394;23;20179;-80
2022/08/13 15:08:07;;;;;;;3.92;1.05;;;;;45.90;100828.00;;;;12739507;23;20179;-80
2022/08/13 15:13:30;;;;;;;1.23;1.10;;;;;40.40;100846.00;;;;12694507;23;20202;-78
2022/08/13 15:18:53;;;;;;;5.30;2.63;;;;;40.70;100825.00;;;;12665346;23;20168;-78
2022/08/13 15:23:56;;;;;;;1.98;0.90;;;;;36.80;100828.00;;;;12758323;23;20167;-80
2022/08/13 15:29:03;;;;;;;4.95;1.27;;;;;35.00;100816.00;;;;12712687;23;20171;-80
2022/08/13 15:34:09;;;;;;;4.18;1.00;;;;;34.50;100808.00;;;;12715743;23;20183;-79
2022/08/13 15:39:11;;;;;;;1.58;0.93;;;;;34.90;100816.00;;;;12715753;23;20254;-80
2022/08/13 15:44:15;;;;;;;1.67;1.40;;;;;34.00;100805.00;;;;12717849;23;20606;-80
2022/08/13 15:49:20;;;;;;;2.50;0.90;;;;;35.70;100797.00;;;;12693452;23;20214;-80
2022/08/13 15:54:25;;;;;;;4.88;1.00;;;;;37.40;100798.00;;;;12742186;23;20192;-80
2022/08/13 15:59:30;;;;;;;3.05;0.82;;;;;35.00;100797.00;;;;12721858;23;20187;-80
2022/08/13 16:04:50;;;;;;;3.15;1.17;;;;;33.90;100787.00;;;;12700134;23;20171;-80
2022/08/13 16:09:52;;;;;;;1.83;1.20;;;;;33.40;100784.00;;;;12722235;23;20167;-80
2022/08/13 16:14:55;;;;;;;2.30;2.10;;;;;32.90;100765.00;;;;12718126;23;20187;-80
2022/08/13 16:19:58;;;;;;;2.08;1.50;;;;;32.60;100764.00;;;;12693399;23;20175;-79
2022/08/13 16:25:15;;;;;;;1.20;1.10;;;;;32.30;100756.00;;;;12718393;23;20160;-80
2022/08/13 16:30:25;;;;;;;1.67;1.10;;;;;32.20;100743.00;;;;12720084;23;20201;-80
2022/08/13 16:35:33;;;;;;;1.42;0.90;;;;;32.00;100738.00;;;;12721663;23;20203;-80
2022/08/13 16:40:52;;;;;;;3.45;1.00;;;;;31.90;100728.00;;;;12719111;23;20227;-79
2022/08/13 16:45:57;;;;;;;5.40;1.40;;;;;31.80;100733.00;;;;12718512;23;20187;-81
2022/08/13 16:51:01;;;;;;;2.60;1.00;;;;;31.70;100726.00;;;;12697098;23;20172;-79
2022/08/13 16:56:05;;;;;;;2.70;1.38;;;;;31.50;100729.00;;;;12693190;23;20188;-79
2022/08/13 17:01:12;;;;;;;1.08;1.00;;;;;31.40;100722.00;;;;12719079;23;20179;-80
2022/08/13 17:11:43;;;;;;;1.52;1.30;;;;;31.20;100717.00;;;;12718636;23;20195;-79
2022/08/13 17:16:50;;;;;;;1.30;1.10;;;;;31.10;100711.00;;;;12721801;23;20262;-80
2022/08/13 17:21:56;;;;;;;3.75;1.35;;;;;31.00;100713.00;;;;12694878;23;20172;-79
2022/08/13 17:27:04;;;;;;;2.40;1.15;;;;;31.00;100718.00;;;;12721458;23;20156;-79
2022/08/13 17:32:10;;;;;;;4.30;1.58;;;;;30.80;100712.00;;;;12765732;23;20168;-79
2022/08/13 17:37:14;;;;;;;4.28;1.40;;;;;30.80;100708.00;;;;12720680;23;20191;-79
2022/08/13 17:42:21;;;;;;;3.33;1.10;;;;;30.60;100714.00;;;;12719807;23;20178;-80
2022/08/13 17:47:43;;;;;;;3.83;1.30;;;;;30.50;100717.00;;;;12694794;23;20797;-80
2022/08/13 17:53:04;;;;;;;2.45;1.15;;;;;30.30;100709.00;;;;12720200;23;20171;-80
2022/08/13 17:58:09;;;;;;;3.03;1.23;;;;;30.20;100709.00;;;;12699550;23;20192;-79
2022/08/13 18:03:15;;;;;;;4.78;1.75;;;;;30.00;100717.00;;;;12699017;23;20175;-80
2022/08/13 18:08:19;;;;;;;1.30;1.17;;;;;29.80;100715.00;;;;12720672;23;20179;-80
2022/08/13 18:13:21;;;;;;;2.33;1.48;;;;;29.60;100721.00;;;;12674127;23;20476;-80
2022/08/13 18:18:46;;;;;;;3.53;1.50;;;;;29.30;100726.00;;;;12695644;23;20194;-80
2022/08/13 18:23:52;;;;;;;5.20;1.48;;;;;29.10;100739.00;;;;12721359;23;20182;-80
2022/08/13 18:28:58;;;;;;;1.80;1.38;;;;;28.90;100738.00;;;;12717846;23;20178;-80
2022/08/13 18:34:01;;;;;;;3.53;1.88;;;;;28.60;100734.00;;;;12720606;23;20168;-79
2022/08/13 18:39:21;;;;;;;1.95;1.50;;;;;28.40;100723.00;;;;12744098;23;20171;-80
2022/08/13 18:44:23;;;;;;;4.05;1.50;;;;;28.10;100731.00;;;;12719205;23;20195;-80
2022/08/13 18:49:37;;;;;;;3.72;1.60;;;;;27.70;100723.00;;;;12718461;23;20208;-80
2022/08/13 18:54:39;;;;;;;6.90;2.55;;;;;27.40;100728.00;;;;12718913;23;20245;-81
2022/08/13 18:59:47;;;;;;;3.80;1.52;;;;;27.20;100729.00;;;;12720657;23;20180;-80
2022/08/13 19:05:05;;;;;;;4.68;2.03;;;;;27.00;100724.00;;;;12698745;23;20259;-80
2022/08/13 19:10:26;;;;;;;5.32;1.50;;;;;26.70;100728.00;;;;12720260;23;20179;-80
2022/08/13 19:15:33;;;;;;;6.07;1.92;;;;;26.50;100733.00;;;;12697193;23;20180;-81
2022/08/13 19:20:37;;;;;;;3.30;1.95;;;;;26.20;100728.00;;;;12671491;23;20420;-80
2022/08/13 19:25:40;;;;;;;3.72;2.25;;;;;26.00;100725.00;;;;12740350;23;20159;-79
2022/08/13 19:30:56;;;;;;;3.38;2.10;;;;;25.70;100725.00;;;;12720901;23;20164;-80
2022/08/13 19:35:59;;;;;;;2.20;2.00;;;;;25.50;100722.00;;;;12671571;23;20203;-80
2022/08/13 19:41:19;;;;;;;7.75;3.38;;;;;25.30;100713.00;;;;12700080;23;20244;-79
2022/08/13 19:46:35;;;;;;;6.10;2.10;;;;;25.10;100719.00;;;;12741069;23;20172;-79
2022/08/13 19:51:37;;;;;;;4.75;2.40;;;;;25.00;100716.00;;;;12740738;23;20450;-80
2022/08/13 19:56:51;;;;;;;2.10;1.80;;;;;24.80;100727.00;;;;12718891;23;20199;-80
2022/08/13 20:01:53;;;;;;;2.05;1.90;;;;;24.60;100734.00;;;;12694437;23;20231;-80
2022/08/13 20:06:55;;;;;;;5.93;2.33;;;;;24.40;100728.00;;;;12718916;23;20246;-80
2022/08/13 20:11:58;;;;;;;4.68;2.03;;;;;24.30;100726.00;;;;12763751;23;20637;-79
2022/08/13 20:17:00;;;;;;;2.25;1.95;;;;;24.10;100725.00;;;;12715993;23;20191;-80
2022/08/13 20:22:04;;;;;;;1.92;1.73;;;;;24.00;100720.00;;;;12717133;23;20183;-80
2022/08/13 20:27:11;;;;;;;2.15;1.95;;;;;23.90;100711.00;;;;12718122;23;20197;-79
2022/08/13 20:32:33;;;;;;;2.10;1.90;;;;;23.70;100714.00;;;;12719843;23;20603;-79
2022/08/13 20:37:38;;;;;;;4.82;1.98;;;;;23.60;100711.00;;;;12715405;23;20184;-79
2022/08/13 20:42:54;;;;;;;5.47;2.05;;;;;23.40;100703.00;;;;12694139;23;20189;-79
2022/08/13 20:47:57;;;;;;;5.80;2.65;;;;;23.30;100707.00;;;;12693529;23;20199;-79
2022/08/13 20:53:17;;;;;;;4.60;2.63;;;;;23.20;100696.00;;;;12719459;23;20190;-79
2022/08/13 20:58:21;;;;;;;4.78;2.53;;;;;23.10;100704.00;;;;12720853;23;20194;-80
2022/08/13 21:03:43;;;;;;;2.10;1.90;;;;;23.00;100704.00;;;;12717274;23;20198;-79
2022/08/13 21:08:45;;;;;;;6.18;2.35;;;;;23.00;100697.00;;;;12717808;23;20168;-79
2022/08/13 21:13:54;;;;;;;2.95;1.80;;;;;22.80;100698.00;;;;12694988;23;20171;-80
2022/08/13 21:18:56;;;;;;;3.53;2.30;;;;;22.70;100697.00;;;;12671235;23;20194;-80
2022/08/13 21:24:18;;;;;;;7.32;2.50;;;;;22.50;100694.00;;;;12676844;23;20192;-80
2022/08/13 21:29:23;;;;;;;2.53;2.10;;;;;22.30;100692.00;;;;12694201;23;20237;-80
2022/08/13 21:34:34;;;;;;;3.88;2.38;;;;;22.10;100697.00;;;;12720211;23;20195;-80
2022/08/13 21:39:38;;;;;;;2.10;1.90;;;;;22.00;100692.00;;;;12694560;23;20176;-80
2022/08/13 21:44:40;;;;;;;4.47;2.60;;;;;21.90;100690.00;;;;12695491;23;20210;-80
2022/08/13 21:49:42;;;;;;;4.22;2.03;;;;;21.90;100692.00;;;;12718596;23;20206;-80
2022/08/13 21:54:46;;;;;;;4.45;2.13;;;;;21.80;100691.00;;;;12762045;23;20184;-80
2022/08/13 21:59:52;;;;;;;3.78;2.22;;;;;21.60;100677.00;;;;12694215;23;20187;-80
2022/08/13 22:04:54;;;;;;;4.18;2.20;;;;;21.50;100685.00;;;;12691957;23;20760;-79
2022/08/13 22:09:56;;;;;;;5.75;2.35;;;;;21.40;100686.00;;;;12760093;23;20247;-80
2022/08/13 22:14:58;;;;;;;4.53;1.90;;;;;21.20;100677.00;;;;12691740;23;20248;-79
2022/08/13 22:20:00;;;;;;;3.75;2.35;;;;;21.10;100675.00;;;;12691222;23;21016;-79
2022/08/13 22:25:06;;;;;;;2.95;2.20;;;;;21.10;100672.00;;;;12715843;23;20168;-80
2022/08/13 22:35:29;;;;;;;2.83;2.55;;;;;20.90;100668.00;;;;12690483;23;20184;-79
2022/08/13 22:40:52;;;;;;;3.90;2.55;;;;;20.80;100665.00;;;;12740643;23;20169;-79
2022/08/13 22:45:54;;;;;;;2.75;2.45;;;;;20.70;100663.00;;;;12692693;23;20630;-79
2022/08/13 22:50:56;;;;;;;3.78;2.60;;;;;20.60;100654.00;;;;12668363;23;20171;-79
2022/08/13 22:55:59;;;;;;;2.70;2.50;;;;;20.50;100655.00;;;;12715523;23;20656;-79
2022/08/13 23:01:00;;;;;;;10.02;2.65;;;;;20.50;100650.00;;;;12691816;23;20184;-80
2022/08/13 23:06:03;;;;;;;6.95;2.83;;;;;20.50;100649.00;;;;12761355;23;20182;-80
2022/08/13 23:11:26;;;;;;;5.35;2.90;;;;;20.50;100636.00;;;;12693968;23;20246;-79
2022/08/13 23:16:29;;;;;;;5.15;2.60;;;;;20.50;100627.00;;;;12713647;23;20623;-79
2022/08/13 23:21:32;;;;;;;3.85;2.50;;;;;20.40;100612.00;;;;12688009;23;20199;-79
2022/08/13 23:26:34;;;;;;;7.22;2.72;;;;;20.40;100613.00;;;;12712339;23;20191;-79
2022/08/13 23:31:37;;;;;;;6.57;2.92;;;;;20.40;100613.00;;;;12711170;23;20192;-80
2022/08/13 23:36:39;;;;;;;2.90;2.20;;;;;20.40;100607.00;;;;12732726;23;20211;-79
2022/08/13 23:41:42;;;;;;;4.40;2.50;;;;;20.40;100605.00;;;;12731647;23;20487;-79
2022/08/13 23:46:45;;;;;;;3.72;2.83;;;;;20.30;100601.00;;;;12712079;23;20195;-79
2022/08/13 23:51:55;;;;;;;4.47;2.90;;;;;20.20;100589.00;;;;12712517;23;20172;-79
2022/08/13 23:56:57;;;;;;;3.30;2.83;;;;;20.20;100586.00;;;;12685179;23;20199;-80
